createdAt,value
2019-02-23T00:02:18.349Z,0.18
2019-02-23T00:04:46.752Z,0.22
2019-02-23T00:07:15.147Z,0.19
2019-02-23T00:09:43.548Z,0.12
2019-02-23T00:12:11.930Z,0.11
2019-02-23T00:14:40.317Z,0.11
2019-02-23T00:17:08.733Z,0.07
2019-02-23T00:19:37.124Z,0.04
2019-02-23T00:22:05.513Z,0.01
2019-02-23T00:24:33.915Z,-0.09
2019-02-23T00:27:02.314Z,-0.10
2019-02-23T00:29:30.709Z,-0.11
2019-02-23T00:31:59.107Z,-0.14
2019-02-23T00:34:29.527Z,-0.17
2019-02-23T00:36:58.000Z,-0.17
2019-02-23T00:39:26.388Z,-0.16
2019-02-23T00:41:54.789Z,-0.19
2019-02-23T00:44:23.185Z,-0.21
2019-02-23T00:46:51.582Z,-0.20
2019-02-23T00:49:19.977Z,-0.24
2019-02-23T00:51:48.438Z,-0.26
2019-02-23T00:54:16.830Z,-0.31
2019-02-23T00:56:45.221Z,-0.35
2019-02-23T00:59:13.651Z,-0.37
2019-02-23T01:01:42.044Z,-0.39
2019-02-23T01:04:10.438Z,-0.42
2019-02-23T01:06:38.835Z,-0.46
2019-02-23T01:09:07.224Z,-0.51
2019-02-23T01:11:35.619Z,-0.53
2019-02-23T01:14:04.084Z,-0.58
2019-02-23T01:16:32.542Z,-0.60
2019-02-23T01:19:00.938Z,-0.58
2019-02-23T01:21:29.332Z,-0.52
2019-02-23T01:23:57.820Z,-0.51
2019-02-23T01:26:26.201Z,-0.53
2019-02-23T01:28:54.592Z,-0.59
2019-02-23T01:31:23.064Z,-0.59
2019-02-23T01:33:51.460Z,-0.64
2019-02-23T01:36:19.863Z,-0.66
2019-02-23T01:38:48.246Z,-0.69
2019-02-23T01:41:16.637Z,-0.73
2019-02-23T01:43:45.099Z,-0.74
2019-02-23T01:46:13.491Z,-0.77
2019-02-23T01:48:41.886Z,-0.76
2019-02-23T01:51:10.283Z,-0.80
2019-02-23T01:53:38.683Z,-0.83
2019-02-23T01:56:07.064Z,-0.85
2019-02-23T01:58:35.459Z,-0.84
2019-02-23T02:01:04.992Z,-0.85
2019-02-23T02:03:33.454Z,-0.82
2019-02-23T02:06:01.849Z,-0.78
2019-02-23T02:08:30.479Z,-0.80
2019-02-23T02:10:58.868Z,-0.86
2019-02-23T02:13:27.291Z,-0.88
2019-02-23T02:15:55.724Z,-0.91
2019-02-23T02:18:24.261Z,-0.91
2019-02-23T02:20:52.656Z,-0.94
2019-02-23T02:23:21.050Z,-0.96
2019-02-23T02:25:49.440Z,-0.97
2019-02-23T02:28:17.843Z,-0.99
2019-02-23T02:30:46.312Z,-0.97
2019-02-23T02:33:14.676Z,-1.05
2019-02-23T02:35:43.071Z,-1.07
2019-02-23T02:38:11.471Z,-1.07
2019-02-23T02:40:39.876Z,-1.11
2019-02-23T02:43:08.271Z,-1.14
2019-02-23T02:45:36.729Z,-1.17
2019-02-23T02:48:05.208Z,-1.16
2019-02-23T02:50:33.679Z,-1.18
2019-02-23T02:53:02.073Z,-1.21
2019-02-23T02:55:30.468Z,-1.21
2019-02-23T02:57:58.882Z,-1.24
2019-02-23T03:00:27.277Z,-1.26
2019-02-23T03:02:55.675Z,-1.30
2019-02-23T03:05:24.080Z,-1.33
2019-02-23T03:07:52.480Z,-1.36
2019-02-23T03:10:20.869Z,-1.36
2019-02-23T03:12:49.265Z,-1.36
2019-02-23T03:15:17.650Z,-1.36
2019-02-23T03:17:46.054Z,-1.43
2019-02-23T03:20:14.457Z,-1.41
2019-02-23T03:22:42.864Z,-1.38
2019-02-23T03:25:11.267Z,-1.36
2019-02-23T03:27:39.667Z,-1.33
2019-02-23T03:30:11.854Z,-1.35
2019-02-23T03:32:40.389Z,-1.33
2019-02-23T03:35:08.876Z,-1.35
2019-02-23T03:37:37.281Z,-1.34
2019-02-23T03:40:07.713Z,-1.37
2019-02-23T03:42:36.150Z,-1.38
2019-02-23T03:45:05.110Z,-1.39
2019-02-23T03:47:33.491Z,-1.36
2019-02-23T03:50:01.880Z,-1.41
2019-02-23T03:52:30.274Z,-1.44
2019-02-23T03:54:58.675Z,-1.40
2019-02-23T03:57:27.135Z,-1.38
2019-02-23T03:59:55.525Z,-1.38
2019-02-23T04:02:23.948Z,-1.36
2019-02-23T04:04:52.346Z,-1.29
2019-02-23T04:07:20.741Z,-1.26
2019-02-23T04:09:49.137Z,-1.23
2019-02-23T04:12:17.535Z,-1.28
2019-02-23T04:14:46.002Z,-1.29
2019-02-23T04:17:14.397Z,-1.39
2019-02-23T04:19:42.850Z,-1.21
2019-02-23T04:22:11.244Z,-1.20
2019-02-23T04:24:39.642Z,-1.19
2019-02-23T04:27:09.161Z,-1.22
2019-02-23T04:29:37.530Z,-1.30
2019-02-23T04:32:05.933Z,-1.38
2019-02-23T04:34:34.332Z,-1.46
2019-02-23T04:37:02.718Z,-1.43
2019-02-23T04:39:31.117Z,-1.37
2019-02-23T04:41:59.542Z,-1.34
2019-02-23T04:44:27.953Z,-1.42
2019-02-23T04:46:56.340Z,-1.49
2019-02-23T04:49:25.930Z,-1.55
2019-02-23T04:51:54.619Z,-1.62
2019-02-23T04:54:23.015Z,-1.66
2019-02-23T04:56:51.410Z,-1.61
2019-02-23T04:59:19.806Z,-1.61
2019-02-23T05:01:48.200Z,-1.68
2019-02-23T05:04:16.661Z,-1.65
2019-02-23T05:06:45.046Z,-1.99
2019-02-23T05:09:13.445Z,-1.74
2019-02-23T05:11:41.837Z,-1.77
2019-02-23T05:14:10.230Z,-1.81
2019-02-23T05:16:38.622Z,-1.77
2019-02-23T05:19:07.060Z,-1.77
2019-02-23T05:21:35.429Z,-1.76
2019-02-23T05:24:03.824Z,-1.71
2019-02-23T05:26:32.215Z,-1.74
2019-02-23T05:29:00.613Z,-1.72
2019-02-23T05:31:29.382Z,-1.68
2019-02-23T05:33:57.788Z,-1.70
2019-02-23T05:36:26.182Z,-1.83
2019-02-23T05:38:54.595Z,-1.87
2019-02-23T05:41:22.993Z,-1.86
2019-02-23T05:43:51.377Z,-1.82
2019-02-23T05:46:19.777Z,-1.83
2019-02-23T05:48:48.183Z,-1.81
2019-02-23T05:51:16.553Z,-1.83
2019-02-23T05:53:44.950Z,-1.87
2019-02-23T05:56:16.237Z,-1.83
2019-02-23T05:58:43.462Z,-1.76
2019-02-23T06:01:11.868Z,-1.73
2019-02-23T06:03:40.260Z,-1.70
2019-02-23T06:06:08.658Z,-1.65
2019-02-23T06:08:37.064Z,-1.62
2019-02-23T06:11:05.478Z,-1.60
2019-02-23T06:13:33.864Z,-1.56
2019-02-23T06:16:02.526Z,-1.54
2019-02-23T06:18:30.912Z,-1.53
2019-02-23T06:20:59.313Z,-1.54
2019-02-23T06:23:27.718Z,-1.57
2019-02-23T06:25:56.102Z,-1.62
2019-02-23T06:28:24.488Z,-1.60
2019-02-23T06:30:52.880Z,-1.59
2019-02-23T06:33:21.287Z,-1.56
2019-02-23T06:35:49.685Z,-1.53
2019-02-23T06:38:18.079Z,-1.53
2019-02-23T06:40:46.481Z,-1.53
2019-02-23T06:43:14.875Z,-1.52
2019-02-23T06:45:43.262Z,-1.53
2019-02-23T06:48:11.652Z,-1.55
2019-02-23T06:50:40.062Z,-1.56
2019-02-23T06:53:08.499Z,-1.59
2019-02-23T06:55:36.897Z,-1.57
2019-02-23T06:58:05.285Z,-1.55
2019-02-23T07:00:33.840Z,-1.62
2019-02-23T07:03:02.238Z,-1.61
2019-02-23T07:05:30.641Z,-1.61
2019-02-23T07:07:59.078Z,-1.65
2019-02-23T07:10:27.940Z,-1.60
2019-02-23T07:12:56.333Z,-1.61
2019-02-23T07:15:24.729Z,-1.59
2019-02-23T07:17:53.124Z,-1.51
2019-02-23T07:20:21.518Z,-1.47
2019-02-23T07:22:49.910Z,-1.47
2019-02-23T07:25:18.309Z,-1.61
2019-02-23T07:27:46.743Z,-1.58
2019-02-23T07:30:15.222Z,-1.53
2019-02-23T07:32:43.609Z,-1.48
2019-02-23T07:35:12.154Z,-1.51
2019-02-23T07:37:40.525Z,-1.41
2019-02-23T07:40:11.261Z,-1.41
2019-02-23T07:42:39.652Z,-1.33
2019-02-23T07:45:09.791Z,-1.26
2019-02-23T07:47:38.178Z,-1.25
2019-02-23T07:50:12.413Z,-1.18
2019-02-23T07:52:40.807Z,-1.17
2019-02-23T07:55:09.208Z,-1.14
2019-02-23T07:57:37.607Z,-1.11
2019-02-23T08:00:11.701Z,-1.06
2019-02-23T08:02:40.096Z,-1.00
2019-02-23T08:05:09.926Z,-0.94
2019-02-23T08:07:39.927Z,-0.94
2019-02-23T08:10:10.701Z,-0.88
2019-02-23T08:12:39.103Z,-0.82
2019-02-23T08:15:11.570Z,-0.81
2019-02-23T08:17:39.980Z,-0.79
2019-02-23T08:20:10.424Z,-0.72
2019-02-23T08:22:38.817Z,-0.64
2019-02-23T08:25:15.148Z,-0.57
2019-02-23T08:27:43.558Z,-0.50
2019-02-23T08:30:15.024Z,-0.45
2019-02-23T08:32:43.396Z,-0.45
2019-02-23T08:35:11.799Z,-0.41
2019-02-23T08:37:40.194Z,-0.40
2019-02-23T08:40:16.592Z,-0.34
2019-02-23T08:42:44.990Z,-0.27
2019-02-23T08:45:13.467Z,-0.22
2019-02-23T08:47:41.852Z,-0.17
2019-02-23T08:50:13.292Z,-0.19
2019-02-23T08:52:49.089Z,-0.17
2019-02-23T08:55:11.810Z,-0.14
2019-02-23T08:57:40.204Z,-0.13
2019-02-23T09:00:16.708Z,-0.14
2019-02-23T09:02:45.105Z,-0.13
2019-02-23T09:05:14.234Z,-0.08
2019-02-23T09:07:42.623Z,-0.02
2019-02-23T09:10:14.628Z,0.03
2019-02-23T09:12:42.991Z,0.05
2019-02-23T09:15:12.019Z,0.07
2019-02-23T09:17:40.417Z,0.10
2019-02-23T09:20:12.872Z,0.11
2019-02-23T09:22:41.256Z,0.16
2019-02-23T09:25:10.986Z,0.16
2019-02-23T09:27:39.475Z,0.18
2019-02-23T09:30:11.189Z,0.24
2019-02-23T09:32:39.679Z,0.23
2019-02-23T09:35:08.351Z,0.27
2019-02-23T09:37:36.695Z,0.26
2019-02-23T09:40:08.137Z,0.06
2019-02-23T09:42:36.603Z,0.31
2019-02-23T09:45:06.148Z,0.38
2019-02-23T09:47:34.536Z,0.42
2019-02-23T09:50:02.918Z,0.50
2019-02-23T09:52:31.301Z,0.58
2019-02-23T09:54:59.695Z,0.62
2019-02-23T09:57:28.119Z,0.62
2019-02-23T09:59:56.604Z,0.63
2019-02-23T10:02:24.990Z,0.69
2019-02-23T10:04:53.396Z,0.74
2019-02-23T10:07:21.824Z,0.72
2019-02-23T10:09:50.257Z,0.77
2019-02-23T10:12:18.661Z,0.79
2019-02-23T10:14:47.047Z,0.81
2019-02-23T10:17:15.438Z,0.78
2019-02-23T10:19:43.832Z,0.86
2019-02-23T10:22:12.222Z,0.92
2019-02-23T10:24:40.656Z,0.99
2019-02-23T10:27:09.050Z,1.02
2019-02-23T10:29:37.430Z,1.05
2019-02-23T10:32:05.816Z,1.07
2019-02-23T10:34:34.209Z,1.09
2019-02-23T10:37:02.595Z,1.16
2019-02-23T10:39:30.994Z,1.17
2019-02-23T10:41:59.381Z,1.18
2019-02-23T10:44:27.770Z,1.20
2019-02-23T10:46:56.229Z,1.19
2019-02-23T10:49:24.656Z,1.23
2019-02-23T10:51:53.062Z,1.30
2019-02-23T10:54:21.490Z,1.36
2019-02-23T10:56:49.854Z,1.42
2019-02-23T10:59:18.242Z,1.38
2019-02-23T11:01:46.700Z,1.47
2019-02-23T11:04:15.014Z,1.45
2019-02-23T11:06:43.414Z,1.46
2019-02-23T11:09:13.436Z,1.56
2019-02-23T11:11:41.830Z,1.71
2019-02-23T11:14:10.294Z,1.73
2019-02-23T11:16:38.689Z,1.72
2019-02-23T11:19:07.148Z,1.76
2019-02-23T11:21:35.598Z,1.74
2019-02-23T11:24:03.992Z,1.79
2019-02-23T11:26:39.550Z,1.78
2019-02-23T11:29:08.120Z,1.87
2019-02-23T11:31:36.508Z,1.89
2019-02-23T11:34:04.896Z,2.05
2019-02-23T11:36:33.296Z,2.07
2019-02-23T11:39:07.909Z,2.09
2019-02-23T11:41:36.294Z,2.13
2019-02-23T11:44:04.697Z,2.18
2019-02-23T11:46:33.079Z,2.25
2019-02-23T11:49:03.382Z,2.23
2019-02-23T11:51:31.764Z,2.15
2019-02-23T11:54:00.147Z,2.35
2019-02-23T11:56:28.542Z,2.39
2019-02-23T11:58:56.922Z,2.45
2019-02-23T12:01:25.306Z,2.46
2019-02-23T12:03:53.693Z,2.52
2019-02-23T12:06:22.083Z,2.60
2019-02-23T12:08:57.398Z,2.57
2019-02-23T12:11:25.780Z,2.55
2019-02-23T12:13:54.165Z,2.60
2019-02-23T12:16:22.624Z,2.65
2019-02-23T12:19:05.329Z,2.71
2019-02-23T12:21:33.720Z,2.69
2019-02-23T12:24:06.073Z,2.75
2019-02-23T12:26:32.203Z,2.80
2019-02-23T12:29:00.889Z,2.84
2019-02-23T12:31:29.276Z,2.98
2019-02-23T12:33:57.667Z,2.92
2019-02-23T12:36:26.054Z,2.96
2019-02-23T12:38:54.443Z,2.95
2019-02-23T12:41:22.824Z,2.90
2019-02-23T12:43:51.213Z,2.90
2019-02-23T12:46:19.597Z,2.90
2019-02-23T12:48:47.978Z,2.92
2019-02-23T12:51:16.362Z,2.97
2019-02-23T12:53:44.742Z,2.98
2019-02-23T12:56:13.217Z,2.95
2019-02-23T12:58:41.598Z,2.98
2019-02-23T13:01:09.982Z,3.00
2019-02-23T13:03:38.368Z,3.00
2019-02-23T13:06:06.910Z,3.00
2019-02-23T13:09:15.621Z,3.02
2019-02-23T13:11:59.279Z,3.03
2019-02-23T13:14:59.396Z,2.99
2019-02-23T13:17:57.746Z,3.04
2019-02-23T13:20:34.905Z,3.05
2019-02-23T13:23:18.535Z,3.07
2019-02-23T13:25:52.820Z,3.15
2019-02-23T13:28:29.967Z,3.15
2019-02-23T13:31:30.218Z,3.11
2019-02-23T13:34:33.385Z,3.07
2019-02-23T13:37:30.194Z,3.08
2019-02-23T13:40:07.297Z,3.08
2019-02-23T13:42:44.681Z,3.07
2019-02-23T13:45:24.891Z,3.05
2019-02-23T13:48:05.280Z,3.07
2019-02-23T13:51:05.409Z,3.10
2019-02-23T13:53:55.090Z,3.13
2019-02-23T13:57:01.213Z,3.14
2019-02-23T13:59:35.414Z,3.21
2019-02-23T14:02:27.724Z,3.30
2019-02-23T14:05:17.060Z,3.35
2019-02-23T14:08:06.404Z,3.36
2019-02-23T14:10:52.768Z,3.39
2019-02-23T14:13:45.396Z,3.41
2019-02-23T14:16:25.554Z,3.39
2019-02-23T14:19:02.932Z,3.44
2019-02-23T14:21:50.793Z,3.50
2019-02-23T14:24:50.078Z,3.52
2019-02-23T14:27:19.425Z,3.53
2019-02-23T14:30:24.551Z,3.56
2019-02-23T14:33:08.643Z,3.55
2019-02-23T14:36:06.415Z,3.56
2019-02-23T14:38:58.545Z,3.58
2019-02-23T14:41:30.133Z,3.58
2019-02-23T14:44:07.183Z,3.61
2019-02-23T14:46:50.723Z,3.64
2019-02-23T14:49:33.921Z,3.64
2019-02-23T14:52:23.010Z,3.65
2019-02-23T14:55:00.808Z,3.67
2019-02-23T14:57:36.380Z,3.65
2019-02-23T15:00:19.991Z,3.62
2019-02-23T15:03:12.769Z,3.62
2019-02-23T15:05:50.266Z,3.62
2019-02-23T15:08:27.868Z,3.59
2019-02-23T15:11:05.684Z,3.56
2019-02-23T15:13:56.835Z,3.55
2019-02-23T15:16:46.580Z,3.55
2019-02-23T15:19:18.151Z,3.53
2019-02-23T15:21:49.666Z,3.49
2019-02-23T15:24:26.991Z,3.46
2019-02-23T15:27:23.940Z,3.44
2019-02-23T15:30:10.352Z,3.41
2019-02-23T15:32:53.857Z,3.40
2019-02-23T15:35:42.004Z,3.36
2019-02-23T15:38:25.535Z,3.32
2019-02-23T15:41:25.806Z,3.26
2019-02-23T15:44:00.260Z,3.21
2019-02-23T15:46:48.004Z,3.18
2019-02-23T15:49:32.454Z,3.18
2019-02-23T15:52:01.984Z,3.17
2019-02-23T15:54:30.319Z,3.16
2019-02-23T15:57:06.629Z,3.14
2019-02-23T15:59:35.053Z,3.12
2019-02-23T16:02:03.463Z,3.09
2019-02-23T16:04:31.844Z,3.03
2019-02-23T16:07:00.222Z,3.00
2019-02-23T16:09:28.601Z,2.97
2019-02-23T16:11:56.986Z,2.96
2019-02-23T16:14:25.365Z,2.96
2019-02-23T16:16:54.090Z,2.94
2019-02-23T16:19:22.473Z,2.94
2019-02-23T16:21:52.920Z,2.88
2019-02-23T16:24:20.963Z,2.86
2019-02-23T16:26:49.414Z,2.83
2019-02-23T16:29:17.795Z,2.80
2019-02-23T16:31:46.181Z,2.78
2019-02-23T16:34:14.557Z,2.75
2019-02-23T16:36:43.025Z,2.69
2019-02-23T16:39:11.398Z,2.63
2019-02-23T16:41:39.805Z,2.58
2019-02-23T16:44:08.186Z,2.52
2019-02-23T16:46:36.564Z,2.47
2019-02-23T16:49:04.961Z,2.41
2019-02-23T16:51:33.406Z,2.35
2019-02-23T16:54:01.790Z,2.30
2019-02-23T16:56:30.174Z,2.26
2019-02-23T16:58:58.575Z,2.21
2019-02-23T17:01:26.970Z,2.15
2019-02-23T17:03:55.352Z,2.12
2019-02-23T17:06:23.733Z,2.06
2019-02-23T17:08:52.128Z,2.02
2019-02-23T17:11:20.519Z,1.98
2019-02-23T17:13:48.959Z,1.96
2019-02-23T17:16:17.394Z,1.95
2019-02-23T17:18:45.781Z,1.93
2019-02-23T17:21:14.167Z,1.90
2019-02-23T17:23:42.553Z,1.86
2019-02-23T17:26:10.935Z,1.79
2019-02-23T17:28:39.398Z,1.73
2019-02-23T17:31:07.778Z,1.69
2019-02-23T17:33:36.173Z,1.67
2019-02-23T17:36:04.565Z,1.63
2019-02-23T17:38:32.957Z,1.60
2019-02-23T17:41:01.349Z,1.54
2019-02-23T17:43:29.741Z,1.50
2019-02-23T17:45:58.124Z,1.46
2019-02-23T17:48:26.528Z,1.43
2019-02-23T17:50:54.911Z,1.41
2019-02-23T17:53:23.305Z,1.38
2019-02-23T17:55:51.686Z,1.36
2019-02-23T17:58:20.087Z,1.33
2019-02-23T18:00:48.479Z,1.31
2019-02-23T18:03:16.879Z,1.28
2019-02-23T18:05:45.262Z,1.26
2019-02-23T18:08:13.658Z,1.24
2019-02-23T18:10:42.047Z,1.23
2019-02-23T18:13:11.933Z,1.21
2019-02-23T18:15:40.409Z,1.20
2019-02-23T18:18:08.813Z,1.18
2019-02-23T18:20:37.205Z,1.20
2019-02-23T18:23:05.659Z,1.20
2019-02-23T18:25:34.118Z,1.21
2019-02-23T18:28:02.584Z,1.22
2019-02-23T18:30:30.980Z,1.23
2019-02-23T18:32:59.395Z,1.26
2019-02-23T18:35:27.797Z,1.25
2019-02-23T18:37:56.179Z,1.25
2019-02-23T18:40:24.573Z,1.23
2019-02-23T18:42:52.981Z,1.20
2019-02-23T18:45:21.366Z,1.17
2019-02-23T18:47:49.751Z,1.15
2019-02-23T18:50:18.196Z,1.09
2019-02-23T18:52:46.590Z,1.03
2019-02-23T18:55:14.998Z,0.99
2019-02-23T18:57:43.379Z,0.96
2019-02-23T19:00:12.979Z,0.94
2019-02-23T19:02:41.364Z,0.94
2019-02-23T19:05:11.891Z,1.00
2019-02-23T19:07:40.350Z,1.02
2019-02-23T19:10:11.389Z,1.04
2019-02-23T19:12:40.817Z,1.10
2019-02-23T19:15:11.647Z,1.09
2019-02-23T19:17:40.043Z,1.10
2019-02-23T19:20:11.512Z,1.08
2019-02-23T19:22:39.900Z,1.06
2019-02-23T19:25:10.027Z,1.02
2019-02-23T19:27:38.410Z,0.99
2019-02-23T19:30:10.056Z,0.97
2019-02-23T19:32:38.436Z,0.92
2019-02-23T19:35:07.781Z,0.88
2019-02-23T19:37:36.168Z,0.85
2019-02-23T19:40:08.915Z,0.81
2019-02-23T19:42:37.303Z,0.78
2019-02-23T19:45:12.412Z,0.74
2019-02-23T19:47:42.149Z,0.71
2019-02-23T19:50:13.903Z,0.69
2019-02-23T19:52:42.364Z,0.68
2019-02-23T19:55:14.297Z,0.64
2019-02-23T19:57:42.682Z,0.60
2019-02-23T20:00:11.240Z,0.56
2019-02-23T20:02:40.665Z,0.51
2019-02-23T20:05:10.192Z,0.48
2019-02-23T20:07:39.647Z,0.46
2019-02-23T20:10:09.878Z,0.41
2019-02-23T20:12:38.268Z,0.39
2019-02-23T20:15:09.847Z,0.36
2019-02-23T20:17:38.225Z,0.33
2019-02-23T20:20:07.562Z,0.29
2019-02-23T20:22:35.949Z,0.26
2019-02-23T20:25:05.293Z,0.23
2019-02-23T20:27:33.685Z,0.21
2019-02-23T20:30:02.083Z,0.18
2019-02-23T20:32:30.909Z,0.14
2019-02-23T20:35:00.328Z,0.10
2019-02-23T20:37:28.734Z,0.09
2019-02-23T20:39:57.116Z,0.07
2019-02-23T20:42:25.510Z,0.07
2019-02-23T20:44:53.908Z,0.05
2019-02-23T20:47:22.295Z,0.04
2019-02-23T20:49:50.799Z,0.02
2019-02-23T20:52:19.195Z,0.01
2019-02-23T20:54:47.581Z,-0.01
2019-02-23T20:57:16.045Z,-0.03
2019-02-23T20:59:44.372Z,-0.07
2019-02-23T21:02:12.785Z,-0.11
2019-02-23T21:04:41.176Z,-0.12
2019-02-23T21:07:09.570Z,-0.14
2019-02-23T21:09:37.959Z,-0.15
2019-02-23T21:12:06.355Z,-0.19
2019-02-23T21:14:34.743Z,-0.19
2019-02-23T21:17:03.138Z,-0.20
2019-02-23T21:19:31.529Z,-0.22
2019-02-23T21:22:00.933Z,-0.24
2019-02-23T21:24:29.330Z,-0.25
2019-02-23T21:26:57.723Z,-0.24
2019-02-23T21:29:26.950Z,-0.27
2019-02-23T21:31:55.332Z,-0.30
2019-02-23T21:34:23.749Z,-0.30
2019-02-23T21:36:52.169Z,-0.34
2019-02-23T21:39:20.663Z,-0.35
2019-02-23T21:41:49.052Z,-0.36
2019-02-23T21:44:17.443Z,-0.38
2019-02-23T21:46:45.927Z,-0.40
2019-02-23T21:49:14.325Z,-0.40
2019-02-23T21:51:42.754Z,-0.41
2019-02-23T21:54:11.517Z,-0.42
2019-02-23T21:56:42.599Z,-0.43
2019-02-23T21:59:11.206Z,-0.44
2019-02-23T22:01:39.624Z,-0.47
2019-02-23T22:04:07.995Z,-0.49
2019-02-23T22:06:36.522Z,-0.51
2019-02-23T22:09:08.462Z,-0.53
2019-02-23T22:11:36.866Z,-0.56
2019-02-23T22:14:10.390Z,-0.58
2019-02-23T22:16:38.838Z,-0.59
2019-02-23T22:19:07.214Z,-0.60
2019-02-23T22:21:35.623Z,-0.62
2019-02-23T22:24:04.082Z,-0.63
2019-02-23T22:26:32.489Z,-0.65
2019-02-23T22:29:02.808Z,-0.68
2019-02-23T22:31:32.117Z,-0.69
2019-02-23T22:34:00.509Z,-0.71
2019-02-23T22:36:28.921Z,-0.71
2019-02-23T22:38:57.314Z,-0.75
2019-02-23T22:41:25.712Z,-0.76
2019-02-23T22:43:54.139Z,-0.78
2019-02-23T22:46:22.538Z,-0.79
2019-02-23T22:48:51.898Z,-0.79
2019-02-23T22:51:20.289Z,-0.82
2019-02-23T22:53:48.688Z,-0.86
2019-02-23T22:56:17.086Z,-0.87
2019-02-23T22:58:45.756Z,-0.89
2019-02-23T23:01:14.558Z,-0.89
2019-02-23T23:03:42.949Z,-0.91
2019-02-23T23:06:11.405Z,-0.94
2019-02-23T23:08:39.883Z,-0.92
2019-02-23T23:11:08.393Z,-0.93
2019-02-23T23:13:36.731Z,-0.93
2019-02-23T23:16:05.162Z,-0.94
2019-02-23T23:18:33.533Z,-0.95
2019-02-23T23:21:01.921Z,-0.97
2019-02-23T23:23:30.312Z,-0.97
2019-02-23T23:25:58.702Z,-1.01
2019-02-23T23:28:27.091Z,-1.05
2019-02-23T23:30:55.486Z,-1.09
2019-02-23T23:33:24.857Z,-1.11
2019-02-23T23:35:53.247Z,-1.13
2019-02-23T23:38:21.644Z,-1.12
2019-02-23T23:40:50.036Z,-1.12
2019-02-23T23:43:18.435Z,-1.15
2019-02-23T23:45:46.830Z,-1.14
2019-02-23T23:48:15.225Z,-1.14
2019-02-23T23:50:43.664Z,-1.15
2019-02-23T23:53:12.014Z,-1.17
2019-02-23T23:55:40.400Z,-1.18
2019-02-23T23:58:08.833Z,-1.18
